sensor_id;sensor_type;location;lat;lon;timestamp;P1;durP1;ratioP1;P2;durP2;ratioP2
68484;SDS011;55472;50.060;21.960;2022-12-19T00:00:27;25.20;;;8.02;;
68484;SDS011;55472;50.060;21.960;2022-12-19T00:03:14;21.15;;;6.05;;
68484;SDS011;55472;50.060;21.960;2022-12-19T00:05:40;19.90;;;6.40;;
68484;SDS011;55472;50.060;21.960;2022-12-19T00:08:12;24.55;;;7.03;;
68484;SDS011;55472;50.060;21.960;2022-12-19T00:10:41;29.80;;;8.85;;
68484;SDS011;55472;50.060;21.960;2022-12-19T00:13:08;21.85;;;7.35;;
68484;SDS011;55472;50.060;21.960;2022-12-19T00:15:34;26.15;;;7.45;;
68484;SDS011;55472;50.060;21.960;2022-12-19T00:18:01;20.67;;;4.90;;
68484;SDS011;55472;50.060;21.960;2022-12-19T00:20:27;21.23;;;5.90;;
68484;SDS011;55472;50.060;21.960;2022-12-19T00:22:53;21.15;;;5.40;;
68484;SDS011;55472;50.060;21.960;2022-12-19T00:25:19;19.52;;;6.45;;
68484;SDS011;55472;50.060;21.960;2022-12-19T00:27:47;24.17;;;6.97;;
68484;SDS011;55472;50.060;21.960;2022-12-19T00:30:16;18.53;;;5.83;;
68484;SDS011;55472;50.060;21.960;2022-12-19T00:32:42;24.38;;;6.22;;
68484;SDS011;55472;50.060;21.960;2022-12-19T00:35:08;17.85;;;6.00;;
68484;SDS011;55472;50.060;21.960;2022-12-19T00:37:34;20.48;;;6.50;;
68484;SDS011;55472;50.060;21.960;2022-12-19T00:40:00;33.75;;;9.20;;
68484;SDS011;55472;50.060;21.960;2022-12-19T00:42:27;25.93;;;6.20;;
68484;SDS011;55472;50.060;21.960;2022-12-19T00:44:53;24.52;;;7.10;;
68484;SDS011;55472;50.060;21.960;2022-12-19T00:47:19;28.95;;;8.15;;
68484;SDS011;55472;50.060;21.960;2022-12-19T00:49:45;30.92;;;10.15;;
68484;SDS011;55472;50.060;21.960;2022-12-19T00:52:12;27.15;;;8.55;;
68484;SDS011;55472;50.060;21.960;2022-12-19T00:54:38;26.47;;;8.40;;
68484;SDS011;55472;50.060;21.960;2022-12-19T00:57:04;29.70;;;9.98;;
68484;SDS011;55472;50.060;21.960;2022-12-19T00:59:30;24.75;;;6.53;;
68484;SDS011;55472;50.060;21.960;2022-12-19T01:01:56;22.25;;;8.10;;
68484;SDS011;55472;50.060;21.960;2022-12-19T01:04:22;20.07;;;6.23;;
68484;SDS011;55472;50.060;21.960;2022-12-19T01:06:48;27.83;;;8.73;;
68484;SDS011;55472;50.060;21.960;2022-12-19T01:09:15;24.77;;;7.55;;
68484;SDS011;55472;50.060;21.960;2022-12-19T01:11:41;25.02;;;9.65;;
68484;SDS011;55472;50.060;21.960;2022-12-19T01:14:26;25.23;;;7.95;;
68484;SDS011;55472;50.060;21.960;2022-12-19T01:16:52;33.97;;;10.40;;
68484;SDS011;55472;50.060;21.960;2022-12-19T01:19:18;26.45;;;9.63;;
68484;SDS011;55472;50.060;21.960;2022-12-19T01:21:45;27.80;;;7.57;;
68484;SDS011;55472;50.060;21.960;2022-12-19T01:24:11;24.08;;;6.97;;
68484;SDS011;55472;50.060;21.960;2022-12-19T01:26:37;25.03;;;8.53;;
68484;SDS011;55472;50.060;21.960;2022-12-19T01:29:03;30.10;;;9.02;;
68484;SDS011;55472;50.060;21.960;2022-12-19T01:31:31;20.98;;;8.40;;
68484;SDS011;55472;50.060;21.960;2022-12-19T01:33:58;22.10;;;7.40;;
68484;SDS011;55472;50.060;21.960;2022-12-19T01:36:25;23.65;;;7.45;;
68484;SDS011;55472;50.060;21.960;2022-12-19T01:38:53;24.73;;;7.47;;
68484;SDS011;55472;50.060;21.960;2022-12-19T01:41:23;25.15;;;7.20;;
68484;SDS011;55472;50.060;21.960;2022-12-19T01:43:56;23.52;;;6.95;;
68484;SDS011;55472;50.060;21.960;2022-12-19T01:46:32;24.08;;;7.78;;
68484;SDS011;55472;50.060;21.960;2022-12-19T01:49:06;12.80;;;5.00;;
68484;SDS011;55472;50.060;21.960;2022-12-19T01:51:43;22.57;;;5.87;;
68484;SDS011;55472;50.060;21.960;2022-12-19T01:54:19;15.35;;;5.05;;
68484;SDS011;55472;50.060;21.960;2022-12-19T01:56:50;15.07;;;5.32;;
68484;SDS011;55472;50.060;21.960;2022-12-19T01:59:25;17.45;;;5.95;;
68484;SDS011;55472;50.060;21.960;2022-12-19T02:02:16;14.63;;;5.53;;
68484;SDS011;55472;50.060;21.960;2022-12-19T02:04:51;13.10;;;5.03;;
68484;SDS011;55472;50.060;21.960;2022-12-19T02:07:17;14.65;;;5.75;;
68484;SDS011;55472;50.060;21.960;2022-12-19T02:09:45;17.35;;;6.00;;
68484;SDS011;55472;50.060;21.960;2022-12-19T02:12:15;16.65;;;6.10;;
68484;SDS011;55472;50.060;21.960;2022-12-19T02:14:42;16.58;;;4.60;;
68484;SDS011;55472;50.060;21.960;2022-12-19T02:17:15;17.33;;;6.10;;
68484;SDS011;55472;50.060;21.960;2022-12-19T02:32:38;16.13;;;4.80;;
68484;SDS011;55472;50.060;21.960;2022-12-19T02:35:19;23.77;;;6.47;;
68484;SDS011;55472;50.060;21.960;2022-12-19T02:41:04;17.08;;;3.75;;
68484;SDS011;55472;50.060;21.960;2022-12-19T02:43:54;19.70;;;5.20;;
68484;SDS011;55472;50.060;21.960;2022-12-19T02:46:21;13.63;;;5.17;;
68484;SDS011;55472;50.060;21.960;2022-12-19T02:48:49;16.48;;;6.05;;
68484;SDS011;55472;50.060;21.960;2022-12-19T02:51:16;11.35;;;4.45;;
68484;SDS011;55472;50.060;21.960;2022-12-19T02:53:42;13.63;;;4.68;;
68484;SDS011;55472;50.060;21.960;2022-12-19T03:07:28;11.85;;;3.65;;
68484;SDS011;55472;50.060;21.960;2022-12-19T03:10:44;9.73;;;4.35;;
68484;SDS011;55472;50.060;21.960;2022-12-19T03:13:30;8.70;;;3.00;;
68484;SDS011;55472;50.060;21.960;2022-12-19T03:16:00;14.90;;;3.55;;
68484;SDS011;55472;50.060;21.960;2022-12-19T03:18:28;12.88;;;5.03;;
68484;SDS011;55472;50.060;21.960;2022-12-19T03:23:33;15.15;;;2.95;;
68484;SDS011;55472;50.060;21.960;2022-12-19T03:26:04;12.87;;;4.20;;
68484;SDS011;55472;50.060;21.960;2022-12-19T03:31:24;13.88;;;4.00;;
68484;SDS011;55472;50.060;21.960;2022-12-19T03:33:55;12.98;;;4.78;;
68484;SDS011;55472;50.060;21.960;2022-12-19T03:36:39;12.70;;;3.58;;
68484;SDS011;55472;50.060;21.960;2022-12-19T03:39:09;13.90;;;2.43;;
68484;SDS011;55472;50.060;21.960;2022-12-19T03:41:37;13.93;;;5.38;;
68484;SDS011;55472;50.060;21.960;2022-12-19T03:44:24;17.63;;;4.40;;
68484;SDS011;55472;50.060;21.960;2022-12-19T03:49:45;8.70;;;3.28;;
68484;SDS011;55472;50.060;21.960;2022-12-19T03:52:16;19.23;;;6.73;;
68484;SDS011;55472;50.060;21.960;2022-12-19T03:55:18;18.60;;;5.55;;
68484;SDS011;55472;50.060;21.960;2022-12-19T04:00:32;10.23;;;2.80;;
68484;SDS011;55472;50.060;21.960;2022-12-19T04:03:01;12.73;;;5.57;;
68484;SDS011;55472;50.060;21.960;2022-12-19T04:05:29;11.50;;;3.50;;
68484;SDS011;55472;50.060;21.960;2022-12-19T04:07:57;10.23;;;4.30;;
68484;SDS011;55472;50.060;21.960;2022-12-19T04:10:28;14.75;;;4.38;;
68484;SDS011;55472;50.060;21.960;2022-12-19T04:13:09;22.55;;;6.25;;
68484;SDS011;55472;50.060;21.960;2022-12-19T04:19:02;13.37;;;4.07;;
68484;SDS011;55472;50.060;21.960;2022-12-19T04:21:38;23.35;;;6.95;;
68484;SDS011;55472;50.060;21.960;2022-12-19T04:24:11;11.50;;;5.78;;
68484;SDS011;55472;50.060;21.960;2022-12-19T04:26:45;14.10;;;5.75;;
68484;SDS011;55472;50.060;21.960;2022-12-19T04:29:14;11.48;;;3.85;;
68484;SDS011;55472;50.060;21.960;2022-12-19T04:31:41;12.90;;;5.57;;
68484;SDS011;55472;50.060;21.960;2022-12-19T04:34:08;9.00;;;4.13;;
68484;SDS011;55472;50.060;21.960;2022-12-19T04:36:35;12.35;;;4.43;;
68484;SDS011;55472;50.060;21.960;2022-12-19T04:39:01;15.35;;;5.32;;
68484;SDS011;55472;50.060;21.960;2022-12-19T04:41:27;13.07;;;5.05;;
68484;SDS011;55472;50.060;21.960;2022-12-19T04:43:53;8.70;;;2.83;;
68484;SDS011;55472;50.060;21.960;2022-12-19T04:46:20;12.50;;;4.68;;
68484;SDS011;55472;50.060;21.960;2022-12-19T04:48:46;10.75;;;4.28;;
68484;SDS011;55472;50.060;21.960;2022-12-19T04:51:12;16.70;;;4.22;;
68484;SDS011;55472;50.060;21.960;2022-12-19T04:53:40;9.45;;;3.08;;
68484;SDS011;55472;50.060;21.960;2022-12-19T04:56:06;20.47;;;4.63;;
68484;SDS011;55472;50.060;21.960;2022-12-19T04:58:34;15.43;;;4.65;;
68484;SDS011;55472;50.060;21.960;2022-12-19T05:01:01;13.20;;;3.53;;
68484;SDS011;55472;50.060;21.960;2022-12-19T05:03:29;17.15;;;5.18;;
68484;SDS011;55472;50.060;21.960;2022-12-19T05:06:30;27.92;;;7.88;;
68484;SDS011;55472;50.060;21.960;2022-12-19T05:08:49;14.77;;;5.63;;
68484;SDS011;55472;50.060;21.960;2022-12-19T05:11:16;17.20;;;5.35;;
68484;SDS011;55472;50.060;21.960;2022-12-19T05:13:42;18.55;;;4.60;;
68484;SDS011;55472;50.060;21.960;2022-12-19T05:16:10;14.90;;;3.95;;
68484;SDS011;55472;50.060;21.960;2022-12-19T05:18:37;11.57;;;3.65;;
68484;SDS011;55472;50.060;21.960;2022-12-19T05:21:04;29.07;;;7.73;;
68484;SDS011;55472;50.060;21.960;2022-12-19T05:23:30;17.20;;;5.47;;
68484;SDS011;55472;50.060;21.960;2022-12-19T05:25:57;19.30;;;6.47;;
68484;SDS011;55472;50.060;21.960;2022-12-19T05:28:27;19.98;;;7.53;;
68484;SDS011;55472;50.060;21.960;2022-12-19T05:31:28;9.73;;;4.78;;
68484;SDS011;55472;50.060;21.960;2022-12-19T05:33:47;15.03;;;5.60;;
68484;SDS011;55472;50.060;21.960;2022-12-19T05:36:14;13.93;;;4.82;;
68484;SDS011;55472;50.060;21.960;2022-12-19T05:38:42;17.08;;;6.03;;
68484;SDS011;55472;50.060;21.960;2022-12-19T05:41:12;21.10;;;6.75;;
68484;SDS011;55472;50.060;21.960;2022-12-19T05:43:41;19.80;;;5.95;;
68484;SDS011;55472;50.060;21.960;2022-12-19T05:46:09;19.77;;;7.27;;
68484;SDS011;55472;50.060;21.960;2022-12-19T05:48:35;12.75;;;4.60;;
68484;SDS011;55472;50.060;21.960;2022-12-19T05:51:02;20.08;;;7.38;;
68484;SDS011;55472;50.060;21.960;2022-12-19T05:53:29;20.25;;;6.53;;
68484;SDS011;55472;50.060;21.960;2022-12-19T05:56:05;9.98;;;4.72;;
68484;SDS011;55472;50.060;21.960;2022-12-19T05:58:33;11.43;;;4.57;;
68484;SDS011;55472;50.060;21.960;2022-12-19T06:01:01;16.92;;;4.85;;
68484;SDS011;55472;50.060;21.960;2022-12-19T06:03:32;12.63;;;3.92;;
68484;SDS011;55472;50.060;21.960;2022-12-19T06:06:02;11.68;;;5.05;;
68484;SDS011;55472;50.060;21.960;2022-12-19T06:08:43;10.05;;;4.85;;
68484;SDS011;55472;50.060;21.960;2022-12-19T06:11:10;11.73;;;4.23;;
68484;SDS011;55472;50.060;21.960;2022-12-19T06:13:38;11.55;;;3.78;;
68484;SDS011;55472;50.060;21.960;2022-12-19T06:16:06;8.23;;;2.70;;
68484;SDS011;55472;50.060;21.960;2022-12-19T06:18:39;14.35;;;3.67;;
68484;SDS011;55472;50.060;21.960;2022-12-19T06:21:08;19.73;;;4.65;;
68484;SDS011;55472;50.060;21.960;2022-12-19T06:23:38;19.53;;;5.50;;
68484;SDS011;55472;50.060;21.960;2022-12-19T06:26:05;17.48;;;6.57;;
68484;SDS011;55472;50.060;21.960;2022-12-19T06:28:32;11.73;;;5.20;;
68484;SDS011;55472;50.060;21.960;2022-12-19T06:31:01;11.13;;;3.83;;
68484;SDS011;55472;50.060;21.960;2022-12-19T06:33:29;10.75;;;5.63;;
68484;SDS011;55472;50.060;21.960;2022-12-19T06:36:01;13.10;;;6.40;;
68484;SDS011;55472;50.060;21.960;2022-12-19T06:38:31;14.95;;;6.97;;
68484;SDS011;55472;50.060;21.960;2022-12-19T06:40:59;10.10;;;3.45;;
68484;SDS011;55472;50.060;21.960;2022-12-19T06:43:45;12.90;;;4.38;;
68484;SDS011;55472;50.060;21.960;2022-12-19T06:46:12;12.02;;;5.03;;
68484;SDS011;55472;50.060;21.960;2022-12-19T06:48:38;12.67;;;6.23;;
68484;SDS011;55472;50.060;21.960;2022-12-19T06:51:04;11.77;;;6.35;;
68484;SDS011;55472;50.060;21.960;2022-12-19T06:53:30;11.88;;;4.53;;
68484;SDS011;55472;50.060;21.960;2022-12-19T06:55:57;13.02;;;4.25;;
68484;SDS011;55472;50.060;21.960;2022-12-19T06:58:24;7.22;;;3.95;;
68484;SDS011;55472;50.060;21.960;2022-12-19T07:00:51;15.30;;;5.27;;
68484;SDS011;55472;50.060;21.960;2022-12-19T07:03:19;9.52;;;3.47;;
68484;SDS011;55472;50.060;21.960;2022-12-19T07:05:51;20.75;;;5.47;;
68484;SDS011;55472;50.060;21.960;2022-12-19T07:08:18;5.93;;;3.28;;
68484;SDS011;55472;50.060;21.960;2022-12-19T07:10:44;12.52;;;5.35;;
68484;SDS011;55472;50.060;21.960;2022-12-19T07:13:10;9.50;;;5.83;;
68484;SDS011;55472;50.060;21.960;2022-12-19T07:15:36;9.90;;;5.43;;
68484;SDS011;55472;50.060;21.960;2022-12-19T07:18:02;13.05;;;5.18;;
68484;SDS011;55472;50.060;21.960;2022-12-19T07:20:33;20.20;;;5.82;;
68484;SDS011;55472;50.060;21.960;2022-12-19T07:23:02;8.87;;;5.23;;
68484;SDS011;55472;50.060;21.960;2022-12-19T07:25:30;9.50;;;4.68;;
68484;SDS011;55472;50.060;21.960;2022-12-19T07:27:56;22.17;;;6.85;;
68484;SDS011;55472;50.060;21.960;2022-12-19T07:30:22;23.23;;;6.22;;
68484;SDS011;55472;50.060;21.960;2022-12-19T07:32:48;42.55;;;14.80;;
68484;SDS011;55472;50.060;21.960;2022-12-19T07:35:14;37.37;;;12.50;;
68484;SDS011;55472;50.060;21.960;2022-12-19T07:37:40;32.13;;;11.15;;
68484;SDS011;55472;50.060;21.960;2022-12-19T07:40:07;15.25;;;6.93;;
68484;SDS011;55472;50.060;21.960;2022-12-19T07:42:34;24.48;;;7.70;;
68484;SDS011;55472;50.060;21.960;2022-12-19T07:45:00;22.05;;;7.50;;
68484;SDS011;55472;50.060;21.960;2022-12-19T07:47:27;24.53;;;8.33;;
68484;SDS011;55472;50.060;21.960;2022-12-19T07:50:11;33.47;;;12.73;;
68484;SDS011;55472;50.060;21.960;2022-12-19T07:52:44;47.17;;;13.95;;
68484;SDS011;55472;50.060;21.960;2022-12-19T07:55:11;30.77;;;10.57;;
68484;SDS011;55472;50.060;21.960;2022-12-19T07:57:37;28.05;;;9.00;;
68484;SDS011;55472;50.060;21.960;2022-12-19T08:00:04;25.83;;;9.43;;
68484;SDS011;55472;50.060;21.960;2022-12-19T08:02:31;33.08;;;9.05;;
68484;SDS011;55472;50.060;21.960;2022-12-19T08:04:57;32.83;;;10.40;;
68484;SDS011;55472;50.060;21.960;2022-12-19T08:07:26;22.08;;;6.88;;
68484;SDS011;55472;50.060;21.960;2022-12-19T08:09:52;35.05;;;12.35;;
68484;SDS011;55472;50.060;21.960;2022-12-19T08:12:19;38.80;;;9.73;;
68484;SDS011;55472;50.060;21.960;2022-12-19T08:14:45;41.42;;;12.90;;
68484;SDS011;55472;50.060;21.960;2022-12-19T08:17:11;28.05;;;9.55;;
68484;SDS011;55472;50.060;21.960;2022-12-19T08:19:37;29.73;;;9.48;;
68484;SDS011;55472;50.060;21.960;2022-12-19T08:22:03;22.70;;;7.47;;
68484;SDS011;55472;50.060;21.960;2022-12-19T08:24:32;32.33;;;8.77;;
68484;SDS011;55472;50.060;21.960;2022-12-19T08:27:05;28.50;;;8.40;;
68484;SDS011;55472;50.060;21.960;2022-12-19T08:29:31;19.77;;;6.57;;
68484;SDS011;55472;50.060;21.960;2022-12-19T08:31:57;32.72;;;10.10;;
68484;SDS011;55472;50.060;21.960;2022-12-19T08:34:23;25.57;;;10.03;;
68484;SDS011;55472;50.060;21.960;2022-12-19T08:36:49;24.83;;;8.18;;
68484;SDS011;55472;50.060;21.960;2022-12-19T08:39:15;22.67;;;8.77;;
68484;SDS011;55472;50.060;21.960;2022-12-19T08:41:41;26.27;;;10.07;;
68484;SDS011;55472;50.060;21.960;2022-12-19T08:44:09;27.45;;;9.85;;
68484;SDS011;55472;50.060;21.960;2022-12-19T08:46:36;20.40;;;7.23;;
68484;SDS011;55472;50.060;21.960;2022-12-19T08:49:03;28.02;;;10.50;;
68484;SDS011;55472;50.060;21.960;2022-12-19T08:51:29;37.00;;;11.95;;
68484;SDS011;55472;50.060;21.960;2022-12-19T08:53:55;47.15;;;14.93;;
68484;SDS011;55472;50.060;21.960;2022-12-19T08:56:21;40.13;;;12.50;;
68484;SDS011;55472;50.060;21.960;2022-12-19T08:58:49;23.30;;;8.57;;
68484;SDS011;55472;50.060;21.960;2022-12-19T09:01:17;26.45;;;7.80;;
68484;SDS011;55472;50.060;21.960;2022-12-19T09:03:48;23.20;;;7.18;;
68484;SDS011;55472;50.060;21.960;2022-12-19T09:06:14;25.35;;;8.70;;
68484;SDS011;55472;50.060;21.960;2022-12-19T09:08:44;17.33;;;6.28;;
68484;SDS011;55472;50.060;21.960;2022-12-19T09:11:14;16.90;;;6.60;;
68484;SDS011;55472;50.060;21.960;2022-12-19T09:13:44;27.02;;;7.80;;
68484;SDS011;55472;50.060;21.960;2022-12-19T09:16:18;24.13;;;6.97;;
68484;SDS011;55472;50.060;21.960;2022-12-19T09:18:48;30.70;;;10.45;;
68484;SDS011;55472;50.060;21.960;2022-12-19T09:21:17;38.55;;;11.50;;
68484;SDS011;55472;50.060;21.960;2022-12-19T09:23:47;35.47;;;13.70;;
68484;SDS011;55472;50.060;21.960;2022-12-19T09:29:27;32.78;;;10.85;;
68484;SDS011;55472;50.060;21.960;2022-12-19T09:31:53;31.15;;;10.52;;
68484;SDS011;55472;50.060;21.960;2022-12-19T09:34:37;28.38;;;9.20;;
68484;SDS011;55472;50.060;21.960;2022-12-19T09:37:22;33.57;;;10.67;;
68484;SDS011;55472;50.060;21.960;2022-12-19T09:39:49;37.25;;;12.68;;
68484;SDS011;55472;50.060;21.960;2022-12-19T09:45:14;36.55;;;10.63;;
68484;SDS011;55472;50.060;21.960;2022-12-19T09:48:09;35.65;;;11.23;;
68484;SDS011;55472;50.060;21.960;2022-12-19T09:50:44;25.10;;;9.23;;
68484;SDS011;55472;50.060;21.960;2022-12-19T09:53:30;30.23;;;9.27;;
68484;SDS011;55472;50.060;21.960;2022-12-19T09:56:03;27.10;;;8.18;;
68484;SDS011;55472;50.060;21.960;2022-12-19T09:58:38;34.60;;;11.63;;
68484;SDS011;55472;50.060;21.960;2022-12-19T10:05:17;37.10;;;12.30;;
68484;SDS011;55472;50.060;21.960;2022-12-19T10:07:53;36.53;;;11.10;;
68484;SDS011;55472;50.060;21.960;2022-12-19T10:10:29;30.13;;;9.50;;
68484;SDS011;55472;50.060;21.960;2022-12-19T10:13:31;24.67;;;8.30;;
68484;SDS011;55472;50.060;21.960;2022-12-19T10:35:23;27.10;;;10.20;;
68484;SDS011;55472;50.060;21.960;2022-12-19T10:38:12;32.53;;;8.88;;
68484;SDS011;55472;50.060;21.960;2022-12-19T10:41:06;22.10;;;7.88;;
68484;SDS011;55472;50.060;21.960;2022-12-19T10:44:18;31.40;;;10.10;;
68484;SDS011;55472;50.060;21.960;2022-12-19T10:46:47;38.90;;;11.48;;
68484;SDS011;55472;50.060;21.960;2022-12-19T10:49:21;37.70;;;13.77;;
68484;SDS011;55472;50.060;21.960;2022-12-19T10:52:04;62.60;;;20.55;;
68484;SDS011;55472;50.060;21.960;2022-12-19T10:54:41;28.65;;;9.43;;
68484;SDS011;55472;50.060;21.960;2022-12-19T11:00:23;28.88;;;9.18;;
68484;SDS011;55472;50.060;21.960;2022-12-19T11:03:03;18.83;;;5.80;;
68484;SDS011;55472;50.060;21.960;2022-12-19T11:05:40;29.63;;;8.80;;
68484;SDS011;55472;50.060;21.960;2022-12-19T11:08:26;30.33;;;8.02;;
68484;SDS011;55472;50.060;21.960;2022-12-19T11:22:54;22.08;;;6.40;;
68484;SDS011;55472;50.060;21.960;2022-12-19T11:26:23;31.60;;;10.40;;
68484;SDS011;55472;50.060;21.960;2022-12-19T11:28:30;26.33;;;8.10;;
68484;SDS011;55472;50.060;21.960;2022-12-19T11:31:06;30.60;;;9.10;;
68484;SDS011;55472;50.060;21.960;2022-12-19T11:33:55;27.98;;;8.70;;
68484;SDS011;55472;50.060;21.960;2022-12-19T11:39:17;26.48;;;7.90;;
68484;SDS011;55472;50.060;21.960;2022-12-19T11:41:59;22.70;;;7.65;;
68484;SDS011;55472;50.060;21.960;2022-12-19T11:45:10;28.97;;;9.30;;
68484;SDS011;55472;50.060;21.960;2022-12-19T11:47:54;24.20;;;7.38;;
68484;SDS011;55472;50.060;21.960;2022-12-19T11:50:31;23.88;;;8.10;;
68484;SDS011;55472;50.060;21.960;2022-12-19T11:56:50;18.05;;;6.22;;
68484;SDS011;55472;50.060;21.960;2022-12-19T11:59:18;19.07;;;6.17;;
68484;SDS011;55472;50.060;21.960;2022-12-19T12:05:32;21.00;;;6.90;;
68484;SDS011;55472;50.060;21.960;2022-12-19T12:08:31;25.45;;;7.68;;
68484;SDS011;55472;50.060;21.960;2022-12-19T12:14:21;22.67;;;6.97;;
68484;SDS011;55472;50.060;21.960;2022-12-19T12:17:21;24.92;;;7.82;;
68484;SDS011;55472;50.060;21.960;2022-12-19T12:20:22;22.05;;;7.28;;
68484;SDS011;55472;50.060;21.960;2022-12-19T12:23:24;25.45;;;7.22;;
68484;SDS011;55472;50.060;21.960;2022-12-19T12:26:10;24.17;;;7.97;;
68484;SDS011;55472;50.060;21.960;2022-12-19T12:37:52;20.90;;;6.38;;
68484;SDS011;55472;50.060;21.960;2022-12-19T12:46:47;21.85;;;5.93;;
68484;SDS011;55472;50.060;21.960;2022-12-19T12:49:34;22.25;;;5.97;;
68484;SDS011;55472;50.060;21.960;2022-12-19T12:52:16;15.55;;;5.25;;
68484;SDS011;55472;50.060;21.960;2022-12-19T12:55:17;20.08;;;6.53;;
68484;SDS011;55472;50.060;21.960;2022-12-19T12:57:53;18.27;;;5.97;;
68484;SDS011;55472;50.060;21.960;2022-12-19T13:00:32;27.15;;;9.02;;
68484;SDS011;55472;50.060;21.960;2022-12-19T13:11:52;23.00;;;7.03;;
68484;SDS011;55472;50.060;21.960;2022-12-19T13:17:04;22.02;;;6.28;;
68484;SDS011;55472;50.060;21.960;2022-12-19T13:19:38;32.53;;;10.10;;
68484;SDS011;55472;50.060;21.960;2022-12-19T13:23:20;29.70;;;10.70;;
68484;SDS011;55472;50.060;21.960;2022-12-19T13:26:54;22.37;;;7.70;;
68484;SDS011;55472;50.060;21.960;2022-12-19T13:29:30;20.20;;;6.38;;
68484;SDS011;55472;50.060;21.960;2022-12-19T13:32:08;18.73;;;6.63;;
68484;SDS011;55472;50.060;21.960;2022-12-19T13:34:39;38.30;;;9.57;;
68484;SDS011;55472;50.060;21.960;2022-12-19T13:46:26;16.95;;;5.05;;
68484;SDS011;55472;50.060;21.960;2022-12-19T13:51:53;24.52;;;6.55;;
68484;SDS011;55472;50.060;21.960;2022-12-19T13:54:22;23.73;;;6.40;;
68484;SDS011;55472;50.060;21.960;2022-12-19T13:56:53;35.95;;;8.80;;
68484;SDS011;55472;50.060;21.960;2022-12-19T13:59:23;29.02;;;8.38;;
68484;SDS011;55472;50.060;21.960;2022-12-19T14:01:53;44.80;;;10.60;;
68484;SDS011;55472;50.060;21.960;2022-12-19T14:04:29;38.95;;;9.88;;
68484;SDS011;55472;50.060;21.960;2022-12-19T14:07:02;37.13;;;9.53;;
68484;SDS011;55472;50.060;21.960;2022-12-19T14:09:37;34.17;;;9.35;;
68484;SDS011;55472;50.060;21.960;2022-12-19T14:12:11;37.78;;;9.23;;
68484;SDS011;55472;50.060;21.960;2022-12-19T14:17:57;22.65;;;7.00;;
68484;SDS011;55472;50.060;21.960;2022-12-19T14:20:26;23.57;;;7.73;;
68484;SDS011;55472;50.060;21.960;2022-12-19T14:22:58;20.77;;;5.90;;
68484;SDS011;55472;50.060;21.960;2022-12-19T14:28:18;18.65;;;6.10;;
68484;SDS011;55472;50.060;21.960;2022-12-19T14:31:15;19.35;;;6.43;;
68484;SDS011;55472;50.060;21.960;2022-12-19T14:33:46;28.43;;;9.03;;
68484;SDS011;55472;50.060;21.960;2022-12-19T14:36:25;26.92;;;8.23;;
68484;SDS011;55472;50.060;21.960;2022-12-19T14:38:55;34.45;;;10.23;;
68484;SDS011;55472;50.060;21.960;2022-12-19T14:44:11;38.47;;;12.25;;
68484;SDS011;55472;50.060;21.960;2022-12-19T14:46:41;37.00;;;11.67;;
68484;SDS011;55472;50.060;21.960;2022-12-19T14:52:31;26.60;;;8.88;;
68484;SDS011;55472;50.060;21.960;2022-12-19T14:58:07;40.92;;;10.60;;
68484;SDS011;55472;50.060;21.960;2022-12-19T15:00:48;34.47;;;10.30;;
68484;SDS011;55472;50.060;21.960;2022-12-19T15:03:21;31.23;;;9.38;;
68484;SDS011;55472;50.060;21.960;2022-12-19T15:05:51;51.25;;;14.32;;
68484;SDS011;55472;50.060;21.960;2022-12-19T15:08:31;43.25;;;12.95;;
68484;SDS011;55472;50.060;21.960;2022-12-19T15:11:00;39.03;;;13.20;;
68484;SDS011;55472;50.060;21.960;2022-12-19T15:13:54;46.53;;;12.97;;
68484;SDS011;55472;50.060;21.960;2022-12-19T15:16:23;44.80;;;11.80;;
68484;SDS011;55472;50.060;21.960;2022-12-19T15:18:56;43.50;;;13.40;;
68484;SDS011;55472;50.060;21.960;2022-12-19T15:21:24;46.80;;;13.40;;
68484;SDS011;55472;50.060;21.960;2022-12-19T15:23:52;59.92;;;20.17;;
68484;SDS011;55472;50.060;21.960;2022-12-19T15:26:20;51.93;;;14.73;;
68484;SDS011;55472;50.060;21.960;2022-12-19T15:28:54;54.92;;;17.10;;
68484;SDS011;55472;50.060;21.960;2022-12-19T15:31:29;55.50;;;15.95;;
68484;SDS011;55472;50.060;21.960;2022-12-19T15:36:52;69.20;;;21.67;;
68484;SDS011;55472;50.060;21.960;2022-12-19T15:39:20;61.00;;;17.07;;
68484;SDS011;55472;50.060;21.960;2022-12-19T15:41:49;46.40;;;14.35;;
68484;SDS011;55472;50.060;21.960;2022-12-19T15:46:56;44.33;;;14.68;;
68484;SDS011;55472;50.060;21.960;2022-12-19T15:49:23;64.18;;;20.88;;
68484;SDS011;55472;50.060;21.960;2022-12-19T15:51:50;84.57;;;24.30;;
68484;SDS011;55472;50.060;21.960;2022-12-19T15:54:17;93.90;;;30.05;;
68484;SDS011;55472;50.060;21.960;2022-12-19T15:56:51;91.68;;;27.77;;
68484;SDS011;55472;50.060;21.960;2022-12-19T16:02:00;89.32;;;27.73;;
68484;SDS011;55472;50.060;21.960;2022-12-19T16:04:32;74.10;;;24.53;;
68484;SDS011;55472;50.060;21.960;2022-12-19T16:06:58;81.60;;;23.98;;
68484;SDS011;55472;50.060;21.960;2022-12-19T16:09:25;75.60;;;25.00;;
68484;SDS011;55472;50.060;21.960;2022-12-19T16:11:54;80.90;;;21.38;;
68484;SDS011;55472;50.060;21.960;2022-12-19T16:14:22;53.20;;;14.53;;
68484;SDS011;55472;50.060;21.960;2022-12-19T16:16:53;59.92;;;18.27;;
68484;SDS011;55472;50.060;21.960;2022-12-19T16:19:24;55.28;;;16.38;;
68484;SDS011;55472;50.060;21.960;2022-12-19T16:21:55;37.88;;;11.13;;
68484;SDS011;55472;50.060;21.960;2022-12-19T16:24:22;28.13;;;8.65;;
68484;SDS011;55472;50.060;21.960;2022-12-19T16:26:53;35.13;;;11.57;;
68484;SDS011;55472;50.060;21.960;2022-12-19T16:29:22;24.88;;;8.70;;
68484;SDS011;55472;50.060;21.960;2022-12-19T16:31:54;33.08;;;9.38;;
68484;SDS011;55472;50.060;21.960;2022-12-19T16:34:21;23.58;;;8.75;;
68484;SDS011;55472;50.060;21.960;2022-12-19T16:36:49;31.52;;;9.82;;
68484;SDS011;55472;50.060;21.960;2022-12-19T16:39:15;22.73;;;7.53;;
68484;SDS011;55472;50.060;21.960;2022-12-19T16:41:42;34.45;;;10.38;;
68484;SDS011;55472;50.060;21.960;2022-12-19T16:44:16;25.88;;;8.32;;
68484;SDS011;55472;50.060;21.960;2022-12-19T16:46:47;29.83;;;10.02;;
68484;SDS011;55472;50.060;21.960;2022-12-19T16:49:16;35.22;;;11.55;;
68484;SDS011;55472;50.060;21.960;2022-12-19T16:51:47;32.03;;;8.33;;
68484;SDS011;55472;50.060;21.960;2022-12-19T16:54:14;25.63;;;7.32;;
68484;SDS011;55472;50.060;21.960;2022-12-19T16:59:25;17.33;;;6.47;;
68484;SDS011;55472;50.060;21.960;2022-12-19T17:01:56;25.52;;;6.13;;
68484;SDS011;55472;50.060;21.960;2022-12-19T17:04:24;19.77;;;6.07;;
68484;SDS011;55472;50.060;21.960;2022-12-19T17:06:52;17.58;;;5.63;;
68484;SDS011;55472;50.060;21.960;2022-12-19T17:09:20;18.95;;;6.28;;
68484;SDS011;55472;50.060;21.960;2022-12-19T17:11:52;25.52;;;6.13;;
68484;SDS011;55472;50.060;21.960;2022-12-19T17:14:25;22.20;;;7.07;;
68484;SDS011;55472;50.060;21.960;2022-12-19T17:16:56;27.63;;;7.17;;
68484;SDS011;55472;50.060;21.960;2022-12-19T17:19:26;25.65;;;7.38;;
68484;SDS011;55472;50.060;21.960;2022-12-19T17:22:00;26.55;;;7.28;;
68484;SDS011;55472;50.060;21.960;2022-12-19T17:24:26;18.80;;;6.43;;
68484;SDS011;55472;50.060;21.960;2022-12-19T17:26:52;25.58;;;6.18;;
68484;SDS011;55472;50.060;21.960;2022-12-19T17:29:18;27.57;;;6.83;;
68484;SDS011;55472;50.060;21.960;2022-12-19T17:31:44;27.05;;;7.40;;